Time;durP1;ratioP1;P1;durP2;ratioP2;P2;SDS_P1;SDS_P2;PMS_P1;PMS_P2;Temp;Humidity;BMP_temperature;BMP_pressure;BME280_temperature;BME280_humidity;BME280_pressure;Samples;Min_cycle;Max_cycle;Signal;HPM_P1;HPM_P2
2023/05/13 00:00:41;;;;;;;;;5.00;5.00;;;;;21.89;39.13;101659.34;110229;1260;20751;-43
2023/05/13 00:03:11;;;;;;;;;5.00;5.00;;;;;21.90;38.95;101662.38;110201;1251;19861;-42
2023/05/13 00:05:39;;;;;;;;;4.00;4.00;;;;;21.89;39.08;101660.46;110135;1250;20062;-43
2023/05/13 00:08:06;;;;;;;;;5.00;5.00;;;;;21.88;39.01;101663.05;110220;1265;19332;-41
2023/05/13 00:10:34;;;;;;;;;5.00;4.00;;;;;21.88;39.24;101665.45;110172;1260;18305;-42
2023/05/13 00:13:01;;;;;;;;;4.00;4.00;;;;;21.89;39.15;101669.52;110202;1260;19956;-42
2023/05/13 00:15:28;;;;;;;;;2.00;2.00;;;;;21.89;39.11;101667.19;110088;1249;22207;-41
2023/05/13 00:17:56;;;;;;;;;2.00;2.00;;;;;21.88;39.25;101668.89;110094;1250;20506;-42
2023/05/13 00:20:23;;;;;;;;;5.00;4.00;;;;;21.88;38.92;101674.52;110080;1260;19975;-42
2023/05/13 00:22:51;;;;;;;;;4.00;4.00;;;;;21.88;39.07;101669.60;110096;1251;21243;-42
2023/05/13 00:25:18;;;;;;;;;4.33;4.33;;;;;21.89;38.97;101670.88;110050;1251;19647;-43
2023/05/13 00:27:45;;;;;;;;;4.00;4.00;;;;;21.89;39.10;101671.52;110176;1265;20006;-42
2023/05/13 00:30:13;;;;;;;;;3.00;3.00;;;;;21.89;39.09;101672.30;110212;1259;20821;-43
2023/05/13 00:32:40;;;;;;;;;5.00;4.50;;;;;21.89;38.88;101670.65;110209;1265;22258;-42
2023/05/13 00:35:07;;;;;;;;;2.00;2.00;;;;;21.90;39.05;101674.01;110261;1251;20106;-43
2023/05/13 00:37:35;;;;;;;;;4.00;2.00;;;;;21.90;39.14;101677.08;110234;1265;19344;-44
2023/05/13 00:40:02;;;;;;;;;4.00;4.00;;;;;21.90;38.84;101676.73;110278;1250;19658;-43
2023/05/13 00:42:30;;;;;;;;;4.00;4.00;;;;;21.89;39.18;101675.20;110223;1265;18682;-43
2023/05/13 00:44:57;;;;;;;;;4.00;4.00;;;;;21.88;39.10;101672.70;110101;1251;126648;-44
2023/05/13 00:47:24;;;;;;;;;4.00;2.00;;;;;21.89;39.13;101670.80;110239;1260;19489;-43
2023/05/13 00:49:52;;;;;;;;;4.00;4.00;;;;;21.90;39.16;101668.39;110178;1250;20382;-43
2023/05/13 00:52:19;;;;;;;;;2.00;2.00;;;;;21.89;38.98;101669.50;110174;1265;19368;-43
2023/05/13 00:54:46;;;;;;;;;2.00;2.00;;;;;21.89;38.95;101667.40;110286;1251;22384;-43
2023/05/13 00:57:13;;;;;;;;;4.00;4.00;;;;;21.90;39.02;101670.02;110214;1251;20119;-43
2023/05/13 00:59:41;;;;;;;;;4.00;4.00;;;;;21.90;39.04;101669.77;110210;1260;20596;-43
2023/05/13 01:02:08;;;;;;;;;2.00;2.00;;;;;21.90;38.94;101672.91;110204;1265;18227;-43
2023/05/13 01:04:35;;;;;;;;;7.00;7.00;;;;;21.89;39.00;101674.98;110182;1265;18629;-43
2023/05/13 01:07:03;;;;;;;;;4.00;4.00;;;;;21.90;38.99;101680.15;110192;1265;19379;-43
2023/05/13 01:09:30;;;;;;;;;7.00;7.00;;;;;21.90;39.12;101681.99;110229;1250;22683;-44
2023/05/13 01:11:57;;;;;;;;;5.00;5.00;;;;;21.89;39.04;101678.10;110071;1251;20770;-43
2023/05/13 01:14:25;;;;;;;;;4.00;4.00;;;;;21.90;38.94;101680.73;110231;1265;19865;-44
2023/05/13 01:16:52;;;;;;;;;4.00;2.00;;;;;21.90;38.92;101678.55;110235;1261;19561;-43
2023/05/13 01:19:19;;;;;;;;;5.00;4.00;;;;;21.89;38.85;101680.45;110195;1250;20044;-44
2023/05/13 01:21:47;;;;;;;;;4.67;4.33;;;;;21.88;38.88;101681.64;110218;1265;19362;-43
2023/05/13 01:24:14;;;;;;;;;4.00;4.00;;;;;21.89;39.01;101687.35;110203;1260;19356;-43
2023/05/13 01:26:41;;;;;;;;;5.00;5.00;;;;;21.88;39.02;101685.81;110180;1251;22703;-43
2023/05/13 01:29:09;;;;;;;;;5.00;4.00;;;;;21.88;39.11;101682.16;110250;1251;20841;-42
2023/05/13 01:31:36;;;;;;;;;2.67;2.67;;;;;21.89;38.96;101684.86;110263;1251;22224;-43
2023/05/13 01:34:04;;;;;;;;;4.00;4.00;;;;;21.88;38.96;101683.11;110248;1251;19995;-42
2023/05/13 01:36:31;;;;;;;;;5.00;5.00;;;;;21.89;38.93;101682.13;110206;1251;21887;-42
2023/05/13 01:38:59;;;;;;;;;5.00;4.50;;;;;21.89;39.10;101685.54;110256;1265;18484;-44
2023/05/13 01:41:26;;;;;;;;;7.50;4.00;;;;;21.90;38.93;101685.85;110265;1257;21077;-43
2023/05/13 01:43:53;;;;;;;;;5.00;5.00;;;;;21.88;39.02;101686.48;110276;1251;20865;-43
2023/05/13 01:46:21;;;;;;;;;4.00;4.00;;;;;21.89;38.82;101686.98;110270;1253;18411;-44
2023/05/13 01:48:48;;;;;;;;;4.00;4.00;;;;;21.89;39.03;101684.83;110233;1265;19215;-42
2023/05/13 01:51:15;;;;;;;;;6.00;5.00;;;;;21.89;38.89;101683.39;110218;1250;20760;-41
2023/05/13 01:53:43;;;;;;;;;5.00;4.67;;;;;21.89;38.94;101685.17;110240;1251;20858;-42
2023/05/13 01:56:10;;;;;;;;;5.00;5.00;;;;;21.88;39.09;101685.27;110222;1265;18645;-41
2023/05/13 01:58:37;;;;;;;;;4.00;4.00;;;;;21.89;38.94;101687.35;110251;1265;19464;-44
2023/05/13 02:01:05;;;;;;;;;4.00;2.00;;;;;21.89;38.99;101691.52;110273;1257;18414;-42
2023/05/13 02:03:32;;;;;;;;;5.00;5.00;;;;;21.89;38.94;101689.05;110274;1250;19943;-42
2023/05/13 02:05:59;;;;;;;;;5.00;5.00;;;;;21.89;38.96;101686.05;110263;1251;20752;-43
2023/05/13 02:08:26;;;;;;;;;2.00;2.00;;;;;21.91;38.95;101684.63;110257;1265;21983;-42
2023/05/13 02:10:54;;;;;;;;;4.33;4.33;;;;;21.90;38.83;101686.36;110189;1251;20186;-43
2023/05/13 02:13:21;;;;;;;;;2.00;2.00;;;;;21.90;38.95;101684.72;110164;1265;21819;-42
2023/05/13 02:15:48;;;;;;;;;4.50;4.50;;;;;21.89;38.79;101681.75;110122;1265;18527;-43
2023/05/13 02:18:16;;;;;;;;;3.00;3.00;;;;;21.90;38.98;101683.46;110277;1259;20166;-43
2023/05/13 02:20:43;;;;;;;;;7.00;7.00;;;;;21.90;38.86;101682.95;110226;1251;21726;-43
2023/05/13 02:23:10;;;;;;;;;4.50;2.00;;;;;21.90;38.80;101683.09;110187;1265;18361;-42
2023/05/13 02:25:38;;;;;;;;;4.00;4.00;;;;;21.90;38.80;101684.18;110223;1260;21636;-42
2023/05/13 02:28:05;;;;;;;;;4.00;2.00;;;;;21.90;38.81;101684.20;110239;1265;19344;-44
2023/05/13 02:30:32;;;;;;;;;;;;;;;21.89;38.68;101683.74;110201;1251;19650;-43
2023/05/13 02:33:00;;;;;;;;;4.50;4.00;;;;;21.89;38.89;101681.92;110220;1265;18667;-42
2023/05/13 02:35:28;;;;;;;;;2.00;2.00;;;;;21.89;38.79;101683.05;110226;1251;20801;-41
2023/05/13 02:37:56;;;;;;;;;4.00;4.00;;;;;21.89;38.80;101685.02;110216;1265;18378;-43
2023/05/13 02:40:23;;;;;;;;;4.00;4.00;;;;;21.89;38.82;101684.10;110296;1265;18628;-42
2023/05/13 02:42:50;;;;;;;;;2.00;2.00;;;;;21.88;38.77;101683.80;110212;1251;23864;-41
2023/05/13 02:45:18;;;;;;;;;4.00;4.00;;;;;21.89;38.74;101686.49;110275;1251;19617;-44
2023/05/13 02:47:45;;;;;;;;;4.00;4.00;;;;;21.88;38.65;101683.66;110222;1260;19888;-44
2023/05/13 02:50:12;;;;;;;;;4.00;4.00;;;;;21.88;38.87;101684.91;110230;1265;19184;-43
2023/05/13 02:52:40;;;;;;;;;4.50;4.00;;;;;21.89;38.71;101684.69;110215;1265;18347;-43
2023/05/13 02:55:07;;;;;;;;;2.00;2.00;;;;;21.89;38.78;101688.84;110180;1259;19965;-43
2023/05/13 02:57:35;;;;;;;;;4.00;4.00;;;;;21.89;38.82;101688.13;110231;1251;22023;-44
2023/05/13 03:00:03;;;;;;;;;2.00;2.00;;;;;21.87;38.94;101690.40;110222;1251;19534;-43
2023/05/13 03:02:30;;;;;;;;;4.00;4.00;;;;;21.87;38.84;101690.64;110278;1251;20053;-43
2023/05/13 03:04:58;;;;;;;;;2.00;2.00;;;;;21.88;38.80;101693.52;110255;1251;19680;-41
2023/05/13 03:07:25;;;;;;;;;4.00;2.00;;;;;21.88;38.83;101700.04;110218;1250;19712;-43
2023/05/13 03:09:52;;;;;;;;;2.00;2.00;;;;;21.89;38.88;101702.50;110266;1251;20061;-41
2023/05/13 03:12:20;;;;;;;;;2.00;2.00;;;;;21.87;38.91;101703.70;110205;1251;19348;-42
2023/05/13 03:14:47;;;;;;;;;4.00;4.00;;;;;21.88;38.89;101702.73;110208;1265;18245;-42
2023/05/13 03:17:14;;;;;;;;;4.50;4.00;;;;;21.88;38.79;101706.92;110178;1265;20523;-42
2023/05/13 03:19:42;;;;;;;;;2.00;2.00;;;;;21.89;38.86;101702.88;110175;1260;20722;-42
2023/05/13 03:22:09;;;;;;;;;5.00;4.00;;;;;21.88;38.84;101701.70;110188;1251;19717;-42
2023/05/13 03:24:36;;;;;;;;;2.00;2.00;;;;;21.88;38.90;101703.99;110059;1266;18711;-43
2023/05/13 03:27:04;;;;;;;;;2.00;2.00;;;;;21.87;38.82;101700.08;109986;1250;19552;-42
2023/05/13 03:29:31;;;;;;;;;4.00;4.00;;;;;21.87;38.98;101704.24;110011;1251;19580;-43
2023/05/13 03:31:58;;;;;;;;;2.00;2.00;;;;;21.88;38.82;101702.21;109999;1266;22898;-43
2023/05/13 03:34:26;;;;;;;;;2.00;2.00;;;;;21.88;38.81;101702.76;110029;1254;19514;-43
2023/05/13 03:36:53;;;;;;;;;4.00;4.00;;;;;21.88;38.60;101703.99;110025;1251;19592;-42
2023/05/13 03:39:20;;;;;;;;;2.00;2.00;;;;;21.88;38.80;101698.54;110012;1266;22748;-43
2023/05/13 03:41:48;;;;;;;;;4.00;4.00;;;;;21.88;38.72;101700.16;110036;1266;19349;-44
2023/05/13 03:44:15;;;;;;;;;4.00;4.00;;;;;21.89;38.76;101701.79;110025;1266;18409;-43
2023/05/13 03:46:42;;;;;;;;;4.00;2.00;;;;;21.89;38.76;101704.10;110000;1259;21152;-43
2023/05/13 03:49:10;;;;;;;;;5.00;4.00;;;;;21.89;38.83;101704.88;109998;1266;21163;-47
2023/05/13 03:51:38;;;;;;;;;4.00;4.00;;;;;21.90;38.86;101708.23;110020;1266;18567;-42
2023/05/13 03:54:06;;;;;;;;;2.00;2.00;;;;;21.89;38.73;101707.01;110009;1251;19020;-43
2023/05/13 03:56:33;;;;;;;;;4.00;4.00;;;;;21.90;38.87;101706.60;110015;1251;22793;-41
2023/05/13 03:59:00;;;;;;;;;2.00;2.00;;;;;21.89;38.67;101706.26;110038;1250;21023;-42
2023/05/13 04:01:28;;;;;;;;;2.00;2.00;;;;;21.90;38.82;101706.42;110000;1250;21160;-42
2023/05/13 04:03:55;;;;;;;;;5.00;5.00;;;;;21.89;38.72;101706.29;110026;1251;20624;-43
2023/05/13 04:06:22;;;;;;;;;4.00;2.00;;;;;21.89;38.76;101703.21;109995;1266;20202;-41
2023/05/13 04:08:50;;;;;;;;;2.00;2.00;;;;;21.89;38.80;101702.12;110033;1266;19839;-43
2023/05/13 04:11:17;;;;;;;;;3.00;3.00;;;;;21.90;38.72;101709.46;110052;1266;19528;-40
2023/05/13 04:13:44;;;;;;;;;4.00;4.00;;;;;21.89;38.54;101705.70;110016;1260;22803;-41
2023/05/13 04:16:13;;;;;;;;;4.00;2.00;;;;;21.89;38.70;101707.52;110034;1266;18835;-41
2023/05/13 04:18:40;;;;;;;;;2.00;2.00;;;;;21.88;38.81;101707.44;110052;1266;19382;-41
2023/05/13 04:21:07;;;;;;;;;2.00;2.00;;;;;21.89;38.74;101709.96;110024;1266;20142;-42
2023/05/13 04:23:35;;;;;;;;;2.00;2.00;;;;;21.90;38.69;101705.67;109993;1254;20000;-42
2023/05/13 04:26:02;;;;;;;;;2.00;2.00;;;;;21.89;38.64;101708.64;110001;1250;20797;-41
2023/05/13 04:28:30;;;;;;;;;4.00;4.00;;;;;21.89;38.60;101707.24;110053;1251;22092;-41
2023/05/13 04:30:57;;;;;;;;;4.00;4.00;;;;;21.88;38.81;101711.47;110001;1251;19996;-42
2023/05/13 04:33:25;;;;;;;;;4.00;4.00;;;;;21.89;38.58;101720.27;110008;1259;19712;-44
2023/05/13 04:35:52;;;;;;;;;4.00;4.00;;;;;21.89;38.77;101719.77;110020;1251;19577;-41
2023/05/13 04:38:20;;;;;;;;;4.00;4.00;;;;;21.89;38.60;101717.09;110037;1266;18780;-43
2023/05/13 04:40:47;;;;;;;;;4.00;4.00;;;;;21.90;38.72;101715.06;110004;1259;22676;-42
2023/05/13 04:43:15;;;;;;;;;4.00;4.00;;;;;21.92;38.77;101713.63;110027;1266;18629;-46
2023/05/13 04:45:42;;;;;;;;;4.00;2.00;;;;;21.93;38.82;101716.80;109979;1266;21706;-43
2023/05/13 04:48:09;;;;;;;;;5.00;4.00;;;;;21.93;38.93;101719.36;109989;1266;19358;-42
2023/05/13 04:50:37;;;;;;;;;2.00;2.00;;;;;21.93;38.90;101722.09;110041;1266;20957;-42
2023/05/13 04:53:04;;;;;;;;;2.00;2.00;;;;;21.96;39.43;101729.45;110047;1250;20040;-43
2023/05/13 04:55:31;;;;;;;;;2.00;2.00;;;;;21.98;40.35;101732.13;110060;1266;19376;-42
2023/05/13 04:57:59;;;;;;;;;2.00;2.00;;;;;21.98;40.85;101732.26;110057;1266;19301;-41
2023/05/13 05:00:26;;;;;;;;;4.00;2.00;;;;;21.97;41.04;101727.96;110010;1266;22459;-43
2023/05/13 05:02:53;;;;;;;;;4.00;2.00;;;;;21.97;40.86;101729.05;110013;1266;19337;-42
2023/05/13 05:05:21;;;;;;;;;2.00;2.00;;;;;21.98;40.57;101731.75;110044;1266;19844;-42
2023/05/13 05:07:48;;;;;;;;;4.00;4.00;;;;;21.98;40.65;101732.63;110040;1266;22271;-41
2023/05/13 05:10:15;;;;;;;;;2.00;2.00;;;;;21.98;40.66;101729.67;110054;1250;20769;-41
2023/05/13 05:12:43;;;;;;;;;2.00;2.00;;;;;21.98;40.61;101730.66;110004;1251;20903;-42
2023/05/13 05:15:14;;;;;;;;;2.00;2.00;;;;;21.98;40.56;101728.78;110019;1266;18639;-42
2023/05/13 05:17:41;;;;;;;;;4.00;3.33;;;;;21.99;40.63;101727.41;110054;1251;20690;-42
2023/05/13 05:20:09;;;;;;;;;2.00;2.00;;;;;21.98;40.52;101729.13;110038;1251;18470;-42
2023/05/13 05:22:36;;;;;;;;;1.00;1.00;;;;;21.98;40.45;101729.29;110061;1266;18631;-42
2023/05/13 05:25:03;;;;;;;;;2.00;2.00;;;;;21.98;40.53;101733.48;110027;1266;19527;-42
2023/05/13 05:27:30;;;;;;;;;1.00;1.00;;;;;21.99;40.34;101737.60;110034;1251;19633;-42
2023/05/13 05:29:58;;;;;;;;;2.00;2.00;;;;;22.01;40.39;101735.63;110002;1266;18639;-43
2023/05/13 05:32:25;;;;;;;;;3.00;2.00;;;;;22.01;40.26;101735.74;110028;1260;20713;-42
2023/05/13 05:34:52;;;;;;;;;2.00;2.00;;;;;22.03;40.23;101740.11;110011;1266;18437;-43
2023/05/13 05:37:20;;;;;;;;;1.00;1.00;;;;;22.03;40.21;101738.52;110018;1266;18643;-44
2023/05/13 05:39:47;;;;;;;;;1.00;1.00;;;;;22.04;40.34;101744.92;110009;1251;20828;-43
2023/05/13 05:42:14;;;;;;;;;2.00;2.00;;;;;22.06;40.45;101747.77;110006;1260;19494;-42
2023/05/13 05:44:42;;;;;;;;;1.67;1.00;;;;;22.06;40.35;101755.05;110005;1250;19940;-42
2023/05/13 05:47:09;;;;;;;;;2.00;2.00;;;;;22.07;40.19;101750.21;110041;1251;20813;-42
2023/05/13 05:49:37;;;;;;;;;2.00;2.00;;;;;22.08;40.49;101753.45;110019;1251;19653;-43
2023/05/13 05:52:04;;;;;;;;;2.00;2.00;;;;;22.08;40.40;101758.11;110045;1251;20160;-44
2023/05/13 05:54:31;;;;;;;;;2.00;2.00;;;;;22.11;40.36;101757.70;110015;1266;19307;-44
2023/05/13 05:56:59;;;;;;;;;2.00;2.00;;;;;22.13;40.22;101759.09;110015;1266;18467;-42
2023/05/13 05:59:27;;;;;;;;;4.00;4.00;;;;;22.17;40.55;101757.94;110004;1251;20051;-42
2023/05/13 06:01:54;;;;;;;;;2.00;2.00;;;;;22.20;40.51;101758.54;110039;1266;19346;-43
2023/05/13 06:04:21;;;;;;;;;2.00;2.00;;;;;22.23;40.70;101755.86;109990;1266;19592;-42
2023/05/13 06:06:49;;;;;;;;;7.00;7.00;;;;;22.22;40.32;101756.56;109971;1260;20017;-42
2023/05/13 06:09:16;;;;;;;;;;;;;;;22.21;40.45;101757.01;110085;1265;19362;-42
2023/05/13 06:11:43;;;;;;;;;4.00;4.00;;;;;22.21;40.94;101757.52;110216;1260;19621;-41
2023/05/13 06:14:11;;;;;;;;;4.00;4.00;;;;;22.22;40.86;101757.42;110216;1251;22811;-43
2023/05/13 06:16:38;;;;;;;;;4.00;4.00;;;;;22.24;40.94;101753.48;110256;1251;20787;-43
2023/05/13 06:19:05;;;;;;;;;2.00;2.00;;;;;22.24;41.25;101751.98;110215;1259;19554;-44
2023/05/13 06:21:33;;;;;;;;;4.00;4.00;;;;;22.24;41.20;101753.23;110239;1260;18623;-42
2023/05/13 06:24:01;;;;;;;;;4.00;3.00;;;;;22.29;41.44;101756.54;110230;1257;19363;-42
2023/05/13 06:26:29;;;;;;;;;5.00;5.00;;;;;22.30;41.51;101752.73;110235;1265;22722;-42
2023/05/13 06:28:56;;;;;;;;;4.00;4.00;;;;;22.30;41.50;101758.63;110256;1251;20025;-42
2023/05/13 06:31:24;;;;;;;;;4.00;4.00;;;;;22.28;41.68;101759.70;110195;1251;19210;-44
2023/05/13 06:33:51;;;;;;;;;4.00;4.00;;;;;22.27;41.55;101758.38;110224;1257;19526;-43
2023/05/13 06:36:19;;;;;;;;;4.00;4.00;;;;;22.27;41.90;101754.58;110244;1257;18665;-43
2023/05/13 06:38:46;;;;;;;;;4.00;4.00;;;;;22.28;41.89;101747.73;110194;1265;20934;-43
2023/05/13 06:41:14;;;;;;;;;2.00;2.00;;;;;22.28;41.88;101740.59;110183;1251;19695;-43
2023/05/13 06:43:44;;;;;;;;;2.00;2.00;;;;;22.31;41.97;101744.50;110153;1265;22380;-42
2023/05/13 06:46:11;;;;;;;;;4.00;4.00;;;;;22.36;42.58;101752.14;110246;1251;20918;-42
2023/05/13 06:48:39;;;;;;;;;4.00;4.00;;;;;22.41;42.78;101755.95;110171;1249;18438;-43
2023/05/13 06:51:06;;;;;;;;;2.00;2.00;;;;;22.45;42.71;101757.38;110207;1265;18632;-40
2023/05/13 06:53:33;;;;;;;;;4.00;4.00;;;;;22.45;42.75;101754.20;110155;1251;21927;-40
2023/05/13 06:56:01;;;;;;;;;1.00;1.00;;;;;22.46;42.53;101755.40;110302;1251;19662;-41
2023/05/13 06:58:28;;;;;;;;;4.00;4.00;;;;;22.50;42.76;101753.71;110209;1251;19842;-41
2023/05/13 07:00:55;;;;;;;;;4.00;2.00;;;;;22.51;42.54;101754.19;110185;1257;20126;-41
2023/05/13 07:03:23;;;;;;;;;5.00;5.00;;;;;22.49;42.38;101750.36;110215;1257;22460;-41
2023/05/13 07:05:50;;;;;;;;;4.00;4.00;;;;;22.49;42.47;101751.99;110184;1251;20254;-42
2023/05/13 07:08:17;;;;;;;;;5.00;5.00;;;;;22.49;42.13;101754.33;110244;1251;20776;-43
2023/05/13 07:10:45;;;;;;;;;8.00;8.00;;;;;22.47;41.73;101754.54;110188;1265;18361;-42
2023/05/13 07:13:12;;;;;;;;;10.00;9.00;;;;;22.43;41.21;101754.30;110195;1251;20031;-43
2023/05/13 07:15:39;;;;;;;;;8.50;7.50;;;;;22.39;40.45;101751.02;110185;1266;19404;-43
2023/05/13 07:18:07;;;;;;;;;11.00;11.00;;;;;22.39;40.21;101750.13;110139;1265;22258;-43
2023/05/13 07:20:35;;;;;;;;;14.00;12.00;;;;;22.41;40.11;101747.77;110150;1265;18834;-43
2023/05/13 07:23:03;;;;;;;;;11.00;11.00;;;;;22.42;39.69;101750.74;110184;1258;20688;-42
2023/05/13 07:25:31;;;;;;;;;12.00;11.00;;;;;22.41;39.55;101747.92;110215;1257;18604;-44
2023/05/13 07:27:58;;;;;;;;;9.00;9.00;;;;;22.42;39.43;101747.64;110206;1260;20103;-43
2023/05/13 07:30:25;;;;;;;;;11.00;11.00;;;;;22.46;39.36;101748.54;110215;1265;19381;-43
2023/05/13 07:32:53;;;;;;;;;15.00;12.00;;;;;22.47;39.26;101745.84;110203;1251;19543;-43
2023/05/13 07:35:20;;;;;;;;;16.50;14.50;;;;;22.48;39.27;101746.98;110200;1251;20191;-43
2023/05/13 07:37:47;;;;;;;;;14.00;12.00;;;;;22.48;38.97;101749.71;110191;1266;22149;-43
2023/05/13 07:40:15;;;;;;;;;14.00;14.00;;;;;22.47;38.65;101753.89;110225;1265;18582;-41
2023/05/13 07:42:42;;;;;;;;;15.00;15.00;;;;;22.43;38.31;101753.61;110247;1265;18746;-43
2023/05/13 07:45:09;;;;;;;;;14.00;14.00;;;;;22.38;37.95;101755.73;110195;1265;19266;-43
2023/05/13 07:47:37;;;;;;;;;12.00;11.00;;;;;22.37;38.07;101754.77;110173;1250;18601;-43
2023/05/13 07:50:04;;;;;;;;;14.00;12.00;;;;;22.37;38.15;101751.98;110201;1251;20174;-42
2023/05/13 07:52:31;;;;;;;;;15.00;12.67;;;;;22.39;38.16;101751.74;110223;1265;19567;-43
2023/05/13 07:54:59;;;;;;;;;14.00;14.00;;;;;22.43;38.11;101745.96;110252;1250;21153;-43
2023/05/13 07:57:26;;;;;;;;;14.33;14.33;;;;;22.45;38.18;101748.08;110268;1251;20180;-43
2023/05/13 07:59:53;;;;;;;;;14.50;13.00;;;;;22.45;38.02;101749.66;110256;1265;22044;-42
2023/05/13 08:02:21;;;;;;;;;16.00;15.00;;;;;22.41;37.56;101746.50;110088;1250;18580;-41
2023/05/13 08:04:48;;;;;;;;;16.00;15.00;;;;;22.38;37.33;101747.95;110058;1266;18740;-42
2023/05/13 08:07:16;;;;;;;;;21.50;19.00;;;;;22.32;36.76;101748.33;110046;1251;19339;-41
2023/05/13 08:09:44;;;;;;;;;15.50;15.00;;;;;22.30;36.51;101743.44;110064;1266;22657;-41
2023/05/13 08:12:11;;;;;;;;;15.50;15.00;;;;;22.30;36.27;101741.67;110084;1266;18996;-41
2023/05/13 08:14:39;;;;;;;;;18.00;15.00;;;;;22.30;36.12;101740.91;110011;1250;19344;-42
2023/05/13 08:17:07;;;;;;;;;15.00;15.00;;;;;22.31;35.97;101738.73;110029;1260;20103;-42
2023/05/13 08:19:34;;;;;;;;;18.00;18.00;;;;;22.39;35.58;101738.84;110015;1251;22711;-48
2023/05/13 08:22:01;;;;;;;;;18.00;16.00;;;;;22.40;35.70;101741.46;110078;1266;19336;-42
2023/05/13 08:24:28;;;;;;;;;16.00;14.00;;;;;22.40;35.71;101740.95;110041;1250;22258;-41
2023/05/13 08:26:56;;;;;;;;;14.00;12.00;;;;;22.40;35.67;101738.44;110067;1266;18702;-42
2023/05/13 08:29:23;;;;;;;;;18.00;16.00;;;;;22.46;35.73;101736.10;110025;1251;20989;-41
2023/05/13 08:31:52;;;;;;;;;14.00;14.00;;;;;22.54;35.74;101733.23;110008;1266;18653;-41
2023/05/13 08:34:19;;;;;;;;;14.00;12.00;;;;;22.60;35.75;101730.23;109992;1266;18727;-41
2023/05/13 08:36:47;;;;;;;;;16.00;15.00;;;;;22.62;35.57;101729.10;110017;1251;20826;-41
2023/05/13 08:39:14;;;;;;;;;14.50;14.50;;;;;22.55;35.27;101733.67;110003;1250;21222;-43
2023/05/13 08:41:41;;;;;;;;;15.50;14.00;;;;;22.56;35.22;101727.58;110016;1266;18744;-42
2023/05/13 08:44:09;;;;;;;;;15.00;14.50;;;;;22.60;35.12;101728.00;110025;1260;21941;-41
2023/05/13 08:46:36;;;;;;;;;16.00;15.00;;;;;22.57;34.94;101723.04;110007;1260;19844;-41
2023/05/13 08:49:03;;;;;;;;;13.00;13.00;;;;;22.66;34.93;101723.95;110011;1251;20167;-41
2023/05/13 08:51:31;;;;;;;;;15.50;14.50;;;;;22.65;35.18;101723.88;110022;1266;19360;-41
2023/05/13 08:53:59;;;;;;;;;12.00;12.00;;;;;22.61;35.26;101722.33;110030;1251;20006;-41
2023/05/13 08:56:27;;;;;;;;;15.00;13.00;;;;;22.53;35.22;101717.89;110001;1266;18697;-42
2023/05/13 08:58:55;;;;;;;;;14.00;14.00;;;;;22.50;35.20;101717.44;110014;1260;19254;-41
2023/05/13 09:01:22;;;;;;;;;14.00;14.00;;;;;22.50;35.15;101714.74;110010;1266;19937;-41
2023/05/13 09:03:50;;;;;;;;;12.00;12.00;;;;;22.48;34.67;101720.23;110055;1266;18694;-41
2023/05/13 09:06:17;;;;;;;;;14.50;14.00;;;;;22.43;34.51;101718.77;110007;1251;20895;-40
2023/05/13 09:08:44;;;;;;;;;12.00;11.50;;;;;22.42;34.59;101715.64;110005;1266;19049;-41
2023/05/13 09:11:12;;;;;;;;;12.00;12.00;;;;;22.41;34.53;101709.51;110027;1260;20201;-42
2023/05/13 09:13:39;;;;;;;;;15.00;14.00;;;;;22.42;34.18;101710.83;109987;1251;21230;-45
2023/05/13 09:16:07;;;;;;;;;13.00;13.00;;;;;22.45;34.03;101709.11;109991;1266;19880;-41
2023/05/13 09:18:34;;;;;;;;;12.00;12.00;;;;;22.49;34.23;101705.41;110019;1266;22318;-41
2023/05/13 09:21:01;;;;;;;;;14.00;14.00;;;;;22.47;34.00;101703.91;110009;1266;19384;-41
2023/05/13 09:23:29;;;;;;;;;11.00;11.00;;;;;22.44;34.16;101705.40;110038;1251;20027;-41
2023/05/13 09:25:56;;;;;;;;;14.00;14.00;;;;;22.39;33.71;101701.52;110026;1251;19995;-43
2023/05/13 09:28:24;;;;;;;;;11.00;11.00;;;;;22.38;33.57;101701.06;110021;1260;19344;-42
2023/05/13 09:30:51;;;;;;;;;15.00;12.00;;;;;22.35;33.72;101703.01;109992;1251;20127;-41
2023/05/13 09:33:18;;;;;;;;;14.00;12.00;;;;;22.35;33.75;101702.55;110016;1266;18927;-41
2023/05/13 09:35:46;;;;;;;;;15.00;14.00;;;;;22.31;33.68;101698.77;110009;1266;20738;-42
2023/05/13 09:38:13;;;;;;;;;11.00;11.00;;;;;22.29;33.46;101699.13;109997;1251;20039;-42
2023/05/13 09:40:41;;;;;;;;;13.00;12.00;;;;;22.30;33.59;101700.36;110011;1251;21637;-42
2023/05/13 09:43:08;;;;;;;;;12.00;11.00;;;;;22.28;33.40;101696.92;110018;1266;22136;-43
2023/05/13 09:45:35;;;;;;;;;12.00;12.00;;;;;22.26;33.49;101693.98;110012;1250;20068;-42
2023/05/13 09:48:03;;;;;;;;;12.00;10.00;;;;;22.25;33.50;101695.39;110026;1266;18700;-40
2023/05/13 09:50:30;;;;;;;;;14.50;13.00;;;;;22.26;33.58;101691.05;110031;1266;20829;-41
2023/05/13 09:52:57;;;;;;;;;15.00;11.00;;;;;22.29;33.47;101683.73;110004;1251;20043;-40
2023/05/13 09:55:24;;;;;;;;;11.00;11.00;;;;;22.29;33.60;101671.83;109996;1251;20140;-41
2023/05/13 09:57:52;;;;;;;;;11.00;11.00;;;;;22.31;33.62;101672.19;110031;1260;20716;-41
2023/05/13 10:00:19;;;;;;;;;12.00;12.00;;;;;22.30;33.29;101669.73;110034;1260;20001;-41
2023/05/13 10:02:46;;;;;;;;;11.00;10.00;;;;;22.30;33.57;101665.94;110036;1253;18652;-42
2023/05/13 10:05:14;;;;;;;;;11.00;11.00;;;;;22.34;33.37;101663.26;110008;1266;22647;-42
2023/05/13 10:07:41;;;;;;;;;9.00;9.00;;;;;22.30;33.22;101663.32;110052;1250;20079;-41
2023/05/13 10:10:09;;;;;;;;;10.00;9.00;;;;;22.29;33.31;101665.45;110008;1260;22184;-41
2023/05/13 10:12:36;;;;;;;;;11.50;11.50;;;;;22.27;33.28;101661.45;110035;1251;20644;-42
2023/05/13 10:15:03;;;;;;;;;12.00;12.00;;;;;22.26;33.18;101653.05;110044;1266;18552;-41
2023/05/13 10:17:31;;;;;;;;;13.00;13.00;;;;;22.24;32.94;101655.23;109996;1261;22082;-42
2023/05/13 10:19:58;;;;;;;;;12.00;11.00;;;;;22.22;32.86;101655.11;110030;1251;20941;-42
2023/05/13 10:22:26;;;;;;;;;11.00;11.00;;;;;22.21;32.83;101655.92;109993;1251;18573;-43
2023/05/13 10:24:53;;;;;;;;;12.00;11.33;;;;;22.21;32.49;101655.42;109978;1266;18676;-42
2023/05/13 10:27:21;;;;;;;;;10.00;9.00;;;;;22.22;32.63;101651.42;109986;1251;19348;-42
2023/05/13 10:29:48;;;;;;;;;11.00;11.00;;;;;22.23;32.66;101653.96;109981;1266;18621;-42
2023/05/13 10:32:16;;;;;;;;;11.00;10.00;;;;;22.22;32.30;101654.77;109988;1251;22337;-41
2023/05/13 10:34:43;;;;;;;;;11.00;11.00;;;;;22.21;32.61;101651.09;109912;1250;20795;-42
2023/05/13 10:37:11;;;;;;;;;12.00;12.00;;;;;22.21;32.59;101654.88;109979;1251;20024;-42
2023/05/13 10:39:38;;;;;;;;;11.00;11.00;;;;;22.20;32.58;101651.57;109912;1250;20039;-43
2023/05/13 10:42:06;;;;;;;;;10.00;10.00;;;;;22.18;32.30;101649.00;109900;1251;22786;-42
2023/05/13 10:44:33;;;;;;;;;9.00;9.00;;;;;22.18;31.98;101649.38;109964;1251;20133;-40
2023/05/13 10:47:01;;;;;;;;;10.00;10.00;;;;;22.17;32.00;101647.24;110010;1254;20190;-40
2023/05/13 10:49:28;;;;;;;;;11.00;10.33;;;;;22.19;31.91;101651.98;110012;1251;22103;-41
2023/05/13 10:51:55;;;;;;;;;12.00;10.33;;;;;22.19;31.62;101640.36;110015;1266;18597;-42
2023/05/13 10:54:23;;;;;;;;;11.00;11.00;;;;;22.20;31.76;101639.30;110040;1266;22667;-41
2023/05/13 10:56:51;;;;;;;;;11.00;11.00;;;;;22.22;31.73;101639.31;110110;1257;19343;-41
2023/05/13 10:59:18;;;;;;;;;9.00;9.00;;;;;22.24;31.72;101639.66;110232;1265;18580;-41
2023/05/13 11:01:46;;;;;;;;;10.00;10.00;;;;;22.25;31.26;101637.93;110267;1265;18664;-41
2023/05/13 11:04:13;;;;;;;;;9.00;9.00;;;;;22.27;31.45;101638.41;110197;1251;22664;-41
2023/05/13 11:06:40;;;;;;;;;10.67;10.67;;;;;22.27;30.74;101631.14;110211;1265;19943;-41
2023/05/13 11:09:08;;;;;;;;;8.50;8.50;;;;;22.25;30.81;101636.64;110161;1265;21633;-42
2023/05/13 11:11:35;;;;;;;;;;;;;;;22.22;30.61;101636.17;110181;1265;19624;-41